sensor_id;sensor_type;location;lat;lon;timestamp;temperature;humidity
30399;DHT22;17195;50.838;7.214;2022-12-16T00:02:14;-8.20;99.90
30399;DHT22;17195;50.838;7.214;2022-12-16T00:04:40;-8.20;99.90
30399;DHT22;17195;50.838;7.214;2022-12-16T00:07:05;-8.10;99.90
30399;DHT22;17195;50.838;7.214;2022-12-16T00:09:31;-8.20;99.90
30399;DHT22;17195;50.838;7.214;2022-12-16T00:11:56;-8.20;99.90
30399;DHT22;17195;50.838;7.214;2022-12-16T00:14:22;-8.30;99.90
30399;DHT22;17195;50.838;7.214;2022-12-16T00:16:47;-8.30;99.90
30399;DHT22;17195;50.838;7.214;2022-12-16T00:19:13;-8.40;99.90
30399;DHT22;17195;50.838;7.214;2022-12-16T00:21:38;-8.40;99.90
30399;DHT22;17195;50.838;7.214;2022-12-16T00:24:04;-8.40;99.90
30399;DHT22;17195;50.838;7.214;2022-12-16T00:26:29;-8.50;99.90
30399;DHT22;17195;50.838;7.214;2022-12-16T00:28:56;-8.50;99.90
30399;DHT22;17195;50.838;7.214;2022-12-16T00:31:22;-8.40;99.90
30399;DHT22;17195;50.838;7.214;2022-12-16T00:33:48;-8.50;99.90
30399;DHT22;17195;50.838;7.214;2022-12-16T00:36:13;-8.40;99.90
30399;DHT22;17195;50.838;7.214;2022-12-16T00:38:39;-8.50;99.90
30399;DHT22;17195;50.838;7.214;2022-12-16T00:41:04;-8.50;99.90
30399;DHT22;17195;50.838;7.214;2022-12-16T00:43:30;-8.50;99.90
30399;DHT22;17195;50.838;7.214;2022-12-16T00:45:55;-8.60;99.90
30399;DHT22;17195;50.838;7.214;2022-12-16T00:48:21;-8.50;99.90
30399;DHT22;17195;50.838;7.214;2022-12-16T00:50:52;-8.50;99.90
30399;DHT22;17195;50.838;7.214;2022-12-16T00:53:19;-8.50;99.90
30399;DHT22;17195;50.838;7.214;2022-12-16T00:55:45;-8.60;99.90
30399;DHT22;17195;50.838;7.214;2022-12-16T00:58:11;-8.60;99.90
30399;DHT22;17195;50.838;7.214;2022-12-16T01:00:36;-8.60;99.90
30399;DHT22;17195;50.838;7.214;2022-12-16T01:03:03;-8.60;99.90
30399;DHT22;17195;50.838;7.214;2022-12-16T01:05:28;-8.70;99.90
30399;DHT22;17195;50.838;7.214;2022-12-16T01:07:54;-8.60;99.90
30399;DHT22;17195;50.838;7.214;2022-12-16T01:10:21;-8.70;99.90
30399;DHT22;17195;50.838;7.214;2022-12-16T01:12:46;-8.60;99.90
30399;DHT22;17195;50.838;7.214;2022-12-16T01:15:12;-8.60;99.90
30399;DHT22;17195;50.838;7.214;2022-12-16T01:17:40;-8.70;99.90
30399;DHT22;17195;50.838;7.214;2022-12-16T01:20:06;-8.70;99.90
30399;DHT22;17195;50.838;7.214;2022-12-16T01:22:33;-8.70;99.90
30399;DHT22;17195;50.838;7.214;2022-12-16T01:24:59;-8.80;99.90
30399;DHT22;17195;50.838;7.214;2022-12-16T01:27:26;-8.80;99.90
30399;DHT22;17195;50.838;7.214;2022-12-16T01:29:52;-8.70;99.90
30399;DHT22;17195;50.838;7.214;2022-12-16T01:32:18;-8.80;99.90
30399;DHT22;17195;50.838;7.214;2022-12-16T01:34:48;-8.70;99.90
30399;DHT22;17195;50.838;7.214;2022-12-16T01:37:14;-8.70;99.90
30399;DHT22;17195;50.838;7.214;2022-12-16T01:39:40;-8.60;99.90
30399;DHT22;17195;50.838;7.214;2022-12-16T01:42:13;-8.70;99.90
30399;DHT22;17195;50.838;7.214;2022-12-16T01:44:44;-8.80;99.90
30399;DHT22;17195;50.838;7.214;2022-12-16T01:47:15;-8.80;99.90
30399;DHT22;17195;50.838;7.214;2022-12-16T01:50:09;-8.80;99.90
30399;DHT22;17195;50.838;7.214;2022-12-16T01:52:40;-8.80;99.90
30399;DHT22;17195;50.838;7.214;2022-12-16T01:55:14;-8.90;99.90
30399;DHT22;17195;50.838;7.214;2022-12-16T01:57:47;-8.90;99.90
30399;DHT22;17195;50.838;7.214;2022-12-16T02:00:13;-8.90;99.90
30399;DHT22;17195;50.838;7.214;2022-12-16T02:02:41;-8.90;99.90
30399;DHT22;17195;50.838;7.214;2022-12-16T02:05:08;-8.90;99.90
30399;DHT22;17195;50.838;7.214;2022-12-16T02:08:20;-8.90;99.90
30399;DHT22;17195;50.838;7.214;2022-12-16T02:13:49;-8.90;99.90
30399;DHT22;17195;50.838;7.214;2022-12-16T02:16:50;-8.90;99.90
30399;DHT22;17195;50.838;7.214;2022-12-16T02:30:20;-9.10;99.90
30399;DHT22;17195;50.838;7.214;2022-12-16T02:35:52;-9.00;99.90
30399;DHT22;17195;50.838;7.214;2022-12-16T02:38:26;-9.10;99.90
30399;DHT22;17195;50.838;7.214;2022-12-16T02:41:03;-9.10;99.90
30399;DHT22;17195;50.838;7.214;2022-12-16T02:43:49;-9.20;99.90
30399;DHT22;17195;50.838;7.214;2022-12-16T02:46:17;-9.20;99.90
30399;DHT22;17195;50.838;7.214;2022-12-16T02:48:43;-9.20;99.90
30399;DHT22;17195;50.838;7.214;2022-12-16T02:51:09;-9.10;99.90
30399;DHT22;17195;50.838;7.214;2022-12-16T02:53:36;-9.20;99.90
30399;DHT22;17195;50.838;7.214;2022-12-16T02:56:26;-9.20;99.90
30399;DHT22;17195;50.838;7.214;2022-12-16T02:59:11;-9.20;99.90
30399;DHT22;17195;50.838;7.214;2022-12-16T03:04:46;-9.20;99.90
30399;DHT22;17195;50.838;7.214;2022-12-16T03:07:16;-9.20;99.90
30399;DHT22;17195;50.838;7.214;2022-12-16T03:09:44;-9.20;99.90
30399;DHT22;17195;50.838;7.214;2022-12-16T03:12:13;-9.20;99.90
30399;DHT22;17195;50.838;7.214;2022-12-16T03:14:42;-9.20;99.90
30399;DHT22;17195;50.838;7.214;2022-12-16T03:17:09;-9.20;99.90
30399;DHT22;17195;50.838;7.214;2022-12-16T03:19:36;-9.20;99.90
30399;DHT22;17195;50.838;7.214;2022-12-16T03:22:36;-9.30;99.90
30399;DHT22;17195;50.838;7.214;2022-12-16T03:25:04;-9.30;99.90
30399;DHT22;17195;50.838;7.214;2022-12-16T03:27:43;-9.30;99.90
30399;DHT22;17195;50.838;7.214;2022-12-16T03:30:18;-9.30;99.90
30399;DHT22;17195;50.838;7.214;2022-12-16T03:38:03;-9.40;99.90
30399;DHT22;17195;50.838;7.214;2022-12-16T03:40:31;-9.40;99.90
30399;DHT22;17195;50.838;7.214;2022-12-16T03:42:57;-9.40;99.90
30399;DHT22;17195;50.838;7.214;2022-12-16T03:45:29;-9.50;99.90
30399;DHT22;17195;50.838;7.214;2022-12-16T03:47:57;-9.50;99.90
30399;DHT22;17195;50.838;7.214;2022-12-16T03:50:30;-9.50;99.90
30399;DHT22;17195;50.838;7.214;2022-12-16T03:52:56;-9.40;99.90
30399;DHT22;17195;50.838;7.214;2022-12-16T03:55:22;-9.40;99.90
30399;DHT22;17195;50.838;7.214;2022-12-16T03:57:48;-9.40;99.90
30399;DHT22;17195;50.838;7.214;2022-12-16T04:00:14;-9.50;99.90
30399;DHT22;17195;50.838;7.214;2022-12-16T04:02:40;-9.50;99.90
30399;DHT22;17195;50.838;7.214;2022-12-16T04:05:06;-9.60;99.90
30399;DHT22;17195;50.838;7.214;2022-12-16T04:07:32;-9.60;99.90
30399;DHT22;17195;50.838;7.214;2022-12-16T04:09:58;-9.50;99.90
30399;DHT22;17195;50.838;7.214;2022-12-16T04:12:24;-9.50;99.90
30399;DHT22;17195;50.838;7.214;2022-12-16T04:15:08;-9.50;99.90
30399;DHT22;17195;50.838;7.214;2022-12-16T04:17:52;-9.60;99.90
30399;DHT22;17195;50.838;7.214;2022-12-16T04:20:41;-9.50;99.90
30399;DHT22;17195;50.838;7.214;2022-12-16T04:23:28;-9.50;99.90
30399;DHT22;17195;50.838;7.214;2022-12-16T04:26:13;-9.40;99.90
30399;DHT22;17195;50.838;7.214;2022-12-16T04:28:39;-9.40;99.90
30399;DHT22;17195;50.838;7.214;2022-12-16T04:31:05;-9.50;99.90
30399;DHT22;17195;50.838;7.214;2022-12-16T04:33:31;-9.50;99.90
30399;DHT22;17195;50.838;7.214;2022-12-16T04:36:15;-9.50;99.90
30399;DHT22;17195;50.838;7.214;2022-12-16T04:38:59;-9.50;99.90
30399;DHT22;17195;50.838;7.214;2022-12-16T04:41:44;-9.50;99.90
30399;DHT22;17195;50.838;7.214;2022-12-16T04:44:28;-9.60;99.90
30399;DHT22;17195;50.838;7.214;2022-12-16T04:47:12;-9.50;99.90
30399;DHT22;17195;50.838;7.214;2022-12-16T04:49:56;-9.60;99.90
30399;DHT22;17195;50.838;7.214;2022-12-16T04:52:40;-9.60;99.90
30399;DHT22;17195;50.838;7.214;2022-12-16T04:55:25;-9.60;99.90
30399;DHT22;17195;50.838;7.214;2022-12-16T04:58:09;-9.60;99.90
30399;DHT22;17195;50.838;7.214;2022-12-16T05:00:53;-9.50;99.90
30399;DHT22;17195;50.838;7.214;2022-12-16T05:03:37;-9.50;99.90
30399;DHT22;17195;50.838;7.214;2022-12-16T05:06:21;-9.50;99.90
30399;DHT22;17195;50.838;7.214;2022-12-16T05:09:06;-9.60;99.90
30399;DHT22;17195;50.838;7.214;2022-12-16T05:11:50;-9.50;99.90
30399;DHT22;17195;50.838;7.214;2022-12-16T05:14:34;-9.40;99.90
30399;DHT22;17195;50.838;7.214;2022-12-16T05:17:19;-9.40;99.90
30399;DHT22;17195;50.838;7.214;2022-12-16T05:20:04;-9.50;99.90
30399;DHT22;17195;50.838;7.214;2022-12-16T05:22:49;-9.50;99.90
30399;DHT22;17195;50.838;7.214;2022-12-16T05:25:33;-9.60;99.90
30399;DHT22;17195;50.838;7.214;2022-12-16T05:28:17;-9.70;99.90
30399;DHT22;17195;50.838;7.214;2022-12-16T05:31:02;-9.70;99.90
30399;DHT22;17195;50.838;7.214;2022-12-16T05:33:46;-9.70;99.90
30399;DHT22;17195;50.838;7.214;2022-12-16T05:36:30;-9.70;99.90
30399;DHT22;17195;50.838;7.214;2022-12-16T05:39:14;-9.70;99.90
30399;DHT22;17195;50.838;7.214;2022-12-16T05:41:58;-9.70;99.90
30399;DHT22;17195;50.838;7.214;2022-12-16T05:44:43;-9.70;99.90
30399;DHT22;17195;50.838;7.214;2022-12-16T05:47:27;-9.80;99.90
30399;DHT22;17195;50.838;7.214;2022-12-16T05:50:11;-9.80;99.90
30399;DHT22;17195;50.838;7.214;2022-12-16T05:52:56;-9.70;99.90
30399;DHT22;17195;50.838;7.214;2022-12-16T05:55:41;-9.70;99.90
30399;DHT22;17195;50.838;7.214;2022-12-16T05:58:26;-9.70;99.90
30399;DHT22;17195;50.838;7.214;2022-12-16T06:01:11;-9.70;99.90
30399;DHT22;17195;50.838;7.214;2022-12-16T06:03:55;-9.70;99.90
30399;DHT22;17195;50.838;7.214;2022-12-16T06:06:40;-9.90;99.90
30399;DHT22;17195;50.838;7.214;2022-12-16T06:09:24;-9.80;99.90
30399;DHT22;17195;50.838;7.214;2022-12-16T06:12:09;-9.80;99.90
30399;DHT22;17195;50.838;7.214;2022-12-16T06:14:53;-9.80;99.90
30399;DHT22;17195;50.838;7.214;2022-12-16T06:17:41;-9.80;99.90
30399;DHT22;17195;50.838;7.214;2022-12-16T06:20:26;-9.80;99.90
30399;DHT22;17195;50.838;7.214;2022-12-16T06:23:10;-9.80;99.90
30399;DHT22;17195;50.838;7.214;2022-12-16T06:25:54;-9.80;99.90
30399;DHT22;17195;50.838;7.214;2022-12-16T06:28:39;-9.70;99.90
30399;DHT22;17195;50.838;7.214;2022-12-16T06:31:23;-9.80;99.90
30399;DHT22;17195;50.838;7.214;2022-12-16T06:34:07;-9.70;99.90
30399;DHT22;17195;50.838;7.214;2022-12-16T06:36:51;-9.70;99.90
30399;DHT22;17195;50.838;7.214;2022-12-16T06:39:35;-9.70;99.90
30399;DHT22;17195;50.838;7.214;2022-12-16T06:42:19;-9.60;99.90
30399;DHT22;17195;50.838;7.214;2022-12-16T06:45:04;-9.70;99.90
30399;DHT22;17195;50.838;7.214;2022-12-16T06:47:54;-9.60;99.90
30399;DHT22;17195;50.838;7.214;2022-12-16T06:50:38;-9.60;99.90
30399;DHT22;17195;50.838;7.214;2022-12-16T06:53:41;-9.60;99.90
30399;DHT22;17195;50.838;7.214;2022-12-16T06:56:32;-9.70;99.90
30399;DHT22;17195;50.838;7.214;2022-12-16T06:59:37;-9.70;99.90
30399;DHT22;17195;50.838;7.214;2022-12-16T07:02:24;-9.70;99.90
30399;DHT22;17195;50.838;7.214;2022-12-16T07:05:08;-9.70;99.90
30399;DHT22;17195;50.838;7.214;2022-12-16T07:08:12;-9.70;99.90
30399;DHT22;17195;50.838;7.214;2022-12-16T07:10:56;-9.60;99.90
30399;DHT22;17195;50.838;7.214;2022-12-16T07:13:40;-9.50;99.90
30399;DHT22;17195;50.838;7.214;2022-12-16T07:16:24;-9.50;99.90
30399;DHT22;17195;50.838;7.214;2022-12-16T07:19:08;-9.40;99.90
30399;DHT22;17195;50.838;7.214;2022-12-16T07:21:52;-9.40;99.90
30399;DHT22;17195;50.838;7.214;2022-12-16T07:24:37;-9.50;99.90
30399;DHT22;17195;50.838;7.214;2022-12-16T07:27:21;-9.50;99.90
30399;DHT22;17195;50.838;7.214;2022-12-16T07:30:06;-9.60;99.90
30399;DHT22;17195;50.838;7.214;2022-12-16T07:32:50;-9.60;99.90
30399;DHT22;17195;50.838;7.214;2022-12-16T07:35:34;-9.60;99.90
30399;DHT22;17195;50.838;7.214;2022-12-16T07:38:19;-9.50;99.90
30399;DHT22;17195;50.838;7.214;2022-12-16T07:41:03;-9.50;99.90
30399;DHT22;17195;50.838;7.214;2022-12-16T07:43:47;-9.40;99.90
30399;DHT22;17195;50.838;7.214;2022-12-16T07:46:31;-9.40;99.90
30399;DHT22;17195;50.838;7.214;2022-12-16T07:49:15;-9.30;99.90
30399;DHT22;17195;50.838;7.214;2022-12-16T07:51:59;-9.20;99.90
30399;DHT22;17195;50.838;7.214;2022-12-16T07:54:44;-9.10;99.90
30399;DHT22;17195;50.838;7.214;2022-12-16T07:57:28;-9.10;99.90
30399;DHT22;17195;50.838;7.214;2022-12-16T08:00:13;-9.10;99.90
30399;DHT22;17195;50.838;7.214;2022-12-16T08:02:57;-9.10;99.90
30399;DHT22;17195;50.838;7.214;2022-12-16T08:05:41;-9.00;99.90
30399;DHT22;17195;50.838;7.214;2022-12-16T08:08:25;-9.10;99.90
30399;DHT22;17195;50.838;7.214;2022-12-16T08:11:09;-9.00;99.90
30399;DHT22;17195;50.838;7.214;2022-12-16T08:13:53;-8.90;99.90
30399;DHT22;17195;50.838;7.214;2022-12-16T08:16:38;-8.90;99.90
30399;DHT22;17195;50.838;7.214;2022-12-16T08:19:22;-8.90;99.90
30399;DHT22;17195;50.838;7.214;2022-12-16T08:22:07;-9.00;99.90
30399;DHT22;17195;50.838;7.214;2022-12-16T08:24:52;-8.90;99.90
30399;DHT22;17195;50.838;7.214;2022-12-16T08:27:54;-8.90;99.90
30399;DHT22;17195;50.838;7.214;2022-12-16T08:30:38;-8.80;99.90
30399;DHT22;17195;50.838;7.214;2022-12-16T08:33:22;-8.80;99.90
30399;DHT22;17195;50.838;7.214;2022-12-16T08:36:06;-8.80;99.90
30399;DHT22;17195;50.838;7.214;2022-12-16T08:38:51;-8.60;99.90
30399;DHT22;17195;50.838;7.214;2022-12-16T08:41:35;-8.50;99.90
30399;DHT22;17195;50.838;7.214;2022-12-16T08:44:19;-8.30;99.90
30399;DHT22;17195;50.838;7.214;2022-12-16T08:47:03;-8.20;99.90
30399;DHT22;17195;50.838;7.214;2022-12-16T08:49:48;-8.00;99.90
30399;DHT22;17195;50.838;7.214;2022-12-16T08:52:32;-7.90;99.90
30399;DHT22;17195;50.838;7.214;2022-12-16T08:55:16;-7.80;99.90
30399;DHT22;17195;50.838;7.214;2022-12-16T08:58:00;-7.80;99.90
30399;DHT22;17195;50.838;7.214;2022-12-16T09:00:45;-7.70;99.90
30399;DHT22;17195;50.838;7.214;2022-12-16T09:03:29;-7.60;99.90
30399;DHT22;17195;50.838;7.214;2022-12-16T09:06:13;-7.50;99.90
30399;DHT22;17195;50.838;7.214;2022-12-16T09:08:57;-7.50;99.90
30399;DHT22;17195;50.838;7.214;2022-12-16T09:11:41;-7.40;99.90
30399;DHT22;17195;50.838;7.214;2022-12-16T09:14:25;-7.40;99.90
30399;DHT22;17195;50.838;7.214;2022-12-16T09:17:10;-7.20;99.90
30399;DHT22;17195;50.838;7.214;2022-12-16T09:19:54;-7.20;99.90
30399;DHT22;17195;50.838;7.214;2022-12-16T09:22:38;-7.00;99.90
30399;DHT22;17195;50.838;7.214;2022-12-16T09:25:22;-6.80;99.90
30399;DHT22;17195;50.838;7.214;2022-12-16T09:28:07;-6.70;99.90
30399;DHT22;17195;50.838;7.214;2022-12-16T09:30:51;-6.60;99.90
30399;DHT22;17195;50.838;7.214;2022-12-16T09:33:35;-6.50;99.90
30399;DHT22;17195;50.838;7.214;2022-12-16T09:36:19;-6.40;99.90
30399;DHT22;17195;50.838;7.214;2022-12-16T09:39:03;-6.40;99.90
30399;DHT22;17195;50.838;7.214;2022-12-16T09:42:00;-6.30;99.90
30399;DHT22;17195;50.838;7.214;2022-12-16T09:44:50;-6.40;99.90
30399;DHT22;17195;50.838;7.214;2022-12-16T09:50:25;-6.10;99.90
30399;DHT22;17195;50.838;7.214;2022-12-16T09:53:12;-6.10;99.90
30399;DHT22;17195;50.838;7.214;2022-12-16T09:56:04;-6.00;99.90
30399;DHT22;17195;50.838;7.214;2022-12-16T09:58:56;-5.90;99.90
30399;DHT22;17195;50.838;7.214;2022-12-16T10:01:42;-5.80;99.90
30399;DHT22;17195;50.838;7.214;2022-12-16T10:04:27;-5.70;99.90
30399;DHT22;17195;50.838;7.214;2022-12-16T10:07:16;-5.70;99.90
30399;DHT22;17195;50.838;7.214;2022-12-16T10:10:31;-5.70;99.90
30399;DHT22;17195;50.838;7.214;2022-12-16T10:13:37;-5.70;99.90
30399;DHT22;17195;50.838;7.214;2022-12-16T10:25:27;-5.30;99.90
30399;DHT22;17195;50.838;7.214;2022-12-16T10:31:25;-5.00;99.90
30399;DHT22;17195;50.838;7.214;2022-12-16T10:34:14;-4.90;99.90
30399;DHT22;17195;50.838;7.214;2022-12-16T10:36:59;-4.80;99.90
30399;DHT22;17195;50.838;7.214;2022-12-16T10:39:49;-4.60;99.90
30399;DHT22;17195;50.838;7.214;2022-12-16T10:42:46;-4.50;99.90
30399;DHT22;17195;50.838;7.214;2022-12-16T10:45:44;-4.50;99.90
30399;DHT22;17195;50.838;7.214;2022-12-16T10:48:30;-4.40;99.90
30399;DHT22;17195;50.838;7.214;2022-12-16T10:51:28;-4.30;99.90
30399;DHT22;17195;50.838;7.214;2022-12-16T11:02:53;-3.70;99.90
30399;DHT22;17195;50.838;7.214;2022-12-16T11:05:38;-3.60;99.90
30399;DHT22;17195;50.838;7.214;2022-12-16T11:08:27;-3.40;99.90
30399;DHT22;17195;50.838;7.214;2022-12-16T11:11:29;-3.30;99.90
30399;DHT22;17195;50.838;7.214;2022-12-16T11:14:29;-3.20;99.90
30399;DHT22;17195;50.838;7.214;2022-12-16T11:17:22;-3.00;99.90
30399;DHT22;17195;50.838;7.214;2022-12-16T11:23:21;-2.80;99.90
30399;DHT22;17195;50.838;7.214;2022-12-16T11:26:13;-2.70;99.90
30399;DHT22;17195;50.838;7.214;2022-12-16T11:29:15;-2.60;99.90
30399;DHT22;17195;50.838;7.214;2022-12-16T11:32:21;-2.50;99.90
30399;DHT22;17195;50.838;7.214;2022-12-16T11:35:14;-2.40;99.90
30399;DHT22;17195;50.838;7.214;2022-12-16T11:38:01;-2.40;99.90
30399;DHT22;17195;50.838;7.214;2022-12-16T11:40:48;-2.30;99.90
30399;DHT22;17195;50.838;7.214;2022-12-16T11:43:34;-2.30;99.90
30399;DHT22;17195;50.838;7.214;2022-12-16T11:46:25;-2.30;99.90
30399;DHT22;17195;50.838;7.214;2022-12-16T11:49:30;-2.30;99.90
30399;DHT22;17195;50.838;7.214;2022-12-16T11:52:18;-2.20;99.90
30399;DHT22;17195;50.838;7.214;2022-12-16T11:55:13;-2.10;99.90
30399;DHT22;17195;50.838;7.214;2022-12-16T11:58:43;-2.10;99.90
30399;DHT22;17195;50.838;7.214;2022-12-16T12:01:41;-2.10;99.90
30399;DHT22;17195;50.838;7.214;2022-12-16T12:04:28;-2.20;99.90
30399;DHT22;17195;50.838;7.214;2022-12-16T12:07:50;-2.10;99.90
30399;DHT22;17195;50.838;7.214;2022-12-16T12:10:53;-2.00;99.90
30399;DHT22;17195;50.838;7.214;2022-12-16T12:14:03;-1.90;99.90
30399;DHT22;17195;50.838;7.214;2022-12-16T12:23:05;-1.50;99.90
30399;DHT22;17195;50.838;7.214;2022-12-16T12:26:11;-1.30;99.90
30399;DHT22;17195;50.838;7.214;2022-12-16T12:31:56;-1.20;99.90
30399;DHT22;17195;50.838;7.214;2022-12-16T12:37:59;-1.00;99.90
30399;DHT22;17195;50.838;7.214;2022-12-16T12:40:55;-1.00;99.90
30399;DHT22;17195;50.838;7.214;2022-12-16T12:49:58;-0.80;99.90
30399;DHT22;17195;50.838;7.214;2022-12-16T12:59:17;-0.50;99.90
30399;DHT22;17195;50.838;7.214;2022-12-16T13:02:03;-0.40;99.90
30399;DHT22;17195;50.838;7.214;2022-12-16T13:04:49;-0.30;99.90
30399;DHT22;17195;50.838;7.214;2022-12-16T13:07:34;-0.30;99.90
30399;DHT22;17195;50.838;7.214;2022-12-16T13:13:23;-0.20;99.90
30399;DHT22;17195;50.838;7.214;2022-12-16T13:16:18;-0.10;99.90
30399;DHT22;17195;50.838;7.214;2022-12-16T13:22:34;0.00;99.90
30399;DHT22;17195;50.838;7.214;2022-12-16T13:25:29;0.00;99.90
30399;DHT22;17195;50.838;7.214;2022-12-16T13:28:24;0.10;99.90
30399;DHT22;17195;50.838;7.214;2022-12-16T13:31:09;0.00;99.90
30399;DHT22;17195;50.838;7.214;2022-12-16T13:33:55;0.10;99.90
30399;DHT22;17195;50.838;7.214;2022-12-16T13:36:43;0.10;99.90
30399;DHT22;17195;50.838;7.214;2022-12-16T13:39:29;0.10;99.90
30399;DHT22;17195;50.838;7.214;2022-12-16T13:48:37;0.30;99.90
30399;DHT22;17195;50.838;7.214;2022-12-16T13:54:30;0.50;99.90
30399;DHT22;17195;50.838;7.214;2022-12-16T13:57:18;0.60;99.90
30399;DHT22;17195;50.838;7.214;2022-12-16T14:00:04;0.70;99.90
30399;DHT22;17195;50.838;7.214;2022-12-16T14:02:56;0.80;99.90
30399;DHT22;17195;50.838;7.214;2022-12-16T14:05:42;0.90;99.90
30399;DHT22;17195;50.838;7.214;2022-12-16T14:08:28;1.00;99.90
30399;DHT22;17195;50.838;7.214;2022-12-16T14:11:30;1.00;99.90
30399;DHT22;17195;50.838;7.214;2022-12-16T14:14:27;1.00;99.90
30399;DHT22;17195;50.838;7.214;2022-12-16T14:17:24;1.00;99.90
30399;DHT22;17195;50.838;7.214;2022-12-16T14:20:33;0.90;99.90
30399;DHT22;17195;50.838;7.214;2022-12-16T14:23:40;0.80;99.90
30399;DHT22;17195;50.838;7.214;2022-12-16T14:26:24;0.70;99.90
30399;DHT22;17195;50.838;7.214;2022-12-16T14:29:27;0.70;99.90
30399;DHT22;17195;50.838;7.214;2022-12-16T14:32:38;0.50;99.90
30399;DHT22;17195;50.838;7.214;2022-12-16T14:35:25;0.20;99.90
30399;DHT22;17195;50.838;7.214;2022-12-16T14:38:29;0.20;99.90
30399;DHT22;17195;50.838;7.214;2022-12-16T14:41:19;0.10;99.90
30399;DHT22;17195;50.838;7.214;2022-12-16T14:44:19;0.10;99.90
30399;DHT22;17195;50.838;7.214;2022-12-16T14:47:03;-0.10;99.90
30399;DHT22;17195;50.838;7.214;2022-12-16T14:49:52;-0.10;99.90
30399;DHT22;17195;50.838;7.214;2022-12-16T14:52:37;-0.20;99.90
30399;DHT22;17195;50.838;7.214;2022-12-16T14:55:31;-0.30;99.90
30399;DHT22;17195;50.838;7.214;2022-12-16T14:58:21;-0.30;99.90
30399;DHT22;17195;50.838;7.214;2022-12-16T15:01:21;-0.40;99.90
30399;DHT22;17195;50.838;7.214;2022-12-16T15:04:14;-0.50;99.90
30399;DHT22;17195;50.838;7.214;2022-12-16T15:07:01;-0.60;99.90
30399;DHT22;17195;50.838;7.214;2022-12-16T15:09:48;-0.70;99.90
30399;DHT22;17195;50.838;7.214;2022-12-16T15:12:37;-0.80;99.90
30399;DHT22;17195;50.838;7.214;2022-12-16T15:15:28;-0.80;99.90
30399;DHT22;17195;50.838;7.214;2022-12-16T15:18:18;-0.90;99.90
30399;DHT22;17195;50.838;7.214;2022-12-16T15:21:06;-1.10;99.90
30399;DHT22;17195;50.838;7.214;2022-12-16T15:23:51;-1.30;99.90
30399;DHT22;17195;50.838;7.214;2022-12-16T15:26:35;-1.50;99.90
30399;DHT22;17195;50.838;7.214;2022-12-16T15:29:37;-1.60;99.90
30399;DHT22;17195;50.838;7.214;2022-12-16T15:32:34;-1.80;99.90
30399;DHT22;17195;50.838;7.214;2022-12-16T15:41:04;-2.10;99.90
30399;DHT22;17195;50.838;7.214;2022-12-16T15:43:50;-2.20;99.90
30399;DHT22;17195;50.838;7.214;2022-12-16T15:46:35;-2.30;99.90
30399;DHT22;17195;50.838;7.214;2022-12-16T15:49:32;-2.40;99.90
30399;DHT22;17195;50.838;7.214;2022-12-16T15:52:37;-2.50;99.90
30399;DHT22;17195;50.838;7.214;2022-12-16T15:55:29;-2.70;99.90
30399;DHT22;17195;50.838;7.214;2022-12-16T15:58:31;-2.70;99.90
30399;DHT22;17195;50.838;7.214;2022-12-16T16:01:19;-2.80;99.90
30399;DHT22;17195;50.838;7.214;2022-12-16T16:04:25;-2.90;99.90
30399;DHT22;17195;50.838;7.214;2022-12-16T16:07:28;-2.90;99.90
30399;DHT22;17195;50.838;7.214;2022-12-16T16:10:16;-3.00;99.90
30399;DHT22;17195;50.838;7.214;2022-12-16T16:13:01;-3.00;99.90
30399;DHT22;17195;50.838;7.214;2022-12-16T16:15:46;-3.10;99.90
30399;DHT22;17195;50.838;7.214;2022-12-16T16:18:39;-3.20;99.90
30399;DHT22;17195;50.838;7.214;2022-12-16T16:21:23;-3.30;99.90
30399;DHT22;17195;50.838;7.214;2022-12-16T16:24:07;-3.30;99.90
30399;DHT22;17195;50.838;7.214;2022-12-16T16:26:57;-3.30;99.90
30399;DHT22;17195;50.838;7.214;2022-12-16T16:29:42;-3.20;99.90
30399;DHT22;17195;50.838;7.214;2022-12-16T16:32:26;-3.00;99.90
30399;DHT22;17195;50.838;7.214;2022-12-16T16:35:10;-2.90;99.90
30399;DHT22;17195;50.838;7.214;2022-12-16T16:37:54;-2.90;99.90
30399;DHT22;17195;50.838;7.214;2022-12-16T16:40:41;-2.70;99.90
30399;DHT22;17195;50.838;7.214;2022-12-16T16:43:26;-2.60;99.90
30399;DHT22;17195;50.838;7.214;2022-12-16T16:46:37;-2.50;99.90
30399;DHT22;17195;50.838;7.214;2022-12-16T16:49:32;-2.40;99.90
30399;DHT22;17195;50.838;7.214;2022-12-16T16:52:19;-2.20;99.90
30399;DHT22;17195;50.838;7.214;2022-12-16T16:55:04;-2.20;99.90
30399;DHT22;17195;50.838;7.214;2022-12-16T16:57:49;-2.20;99.90
30399;DHT22;17195;50.838;7.214;2022-12-16T17:00:33;-2.20;99.90
30399;DHT22;17195;50.838;7.214;2022-12-16T17:03:17;-2.20;99.90
30399;DHT22;17195;50.838;7.214;2022-12-16T17:06:02;-2.20;99.90
30399;DHT22;17195;50.838;7.214;2022-12-16T17:08:46;-2.20;99.90
30399;DHT22;17195;50.838;7.214;2022-12-16T17:11:32;-2.20;99.90
30399;DHT22;17195;50.838;7.214;2022-12-16T17:14:18;-2.20;99.90
30399;DHT22;17195;50.838;7.214;2022-12-16T17:17:03;-2.10;99.90
30399;DHT22;17195;50.838;7.214;2022-12-16T17:19:47;-2.10;99.90
30399;DHT22;17195;50.838;7.214;2022-12-16T17:22:31;-2.00;99.90
30399;DHT22;17195;50.838;7.214;2022-12-16T17:25:16;-2.00;99.90
30399;DHT22;17195;50.838;7.214;2022-12-16T17:28:01;-1.90;99.90
30399;DHT22;17195;50.838;7.214;2022-12-16T17:30:45;-1.90;99.90
30399;DHT22;17195;50.838;7.214;2022-12-16T17:33:29;-1.90;99.90
30399;DHT22;17195;50.838;7.214;2022-12-16T17:36:15;-1.90;99.90
30399;DHT22;17195;50.838;7.214;2022-12-16T17:39:00;-1.90;99.90
30399;DHT22;17195;50.838;7.214;2022-12-16T17:41:45;-1.80;99.90
30399;DHT22;17195;50.838;7.214;2022-12-16T17:44:30;-1.80;99.90
30399;DHT22;17195;50.838;7.214;2022-12-16T17:47:14;-1.70;99.90
30399;DHT22;17195;50.838;7.214;2022-12-16T17:49:58;-1.70;99.90
30399;DHT22;17195;50.838;7.214;2022-12-16T17:52:42;-1.70;99.90
30399;DHT22;17195;50.838;7.214;2022-12-16T17:55:26;-1.70;99.90
30399;DHT22;17195;50.838;7.214;2022-12-16T17:58:11;-1.60;99.90
30399;DHT22;17195;50.838;7.214;2022-12-16T18:01:03;-1.60;99.90
30399;DHT22;17195;50.838;7.214;2022-12-16T18:03:47;-1.50;99.90
30399;DHT22;17195;50.838;7.214;2022-12-16T18:06:32;-1.60;99.90
30399;DHT22;17195;50.838;7.214;2022-12-16T18:09:16;-1.50;99.90
30399;DHT22;17195;50.838;7.214;2022-12-16T18:12:00;-1.50;99.90
30399;DHT22;17195;50.838;7.214;2022-12-16T18:14:44;-1.50;99.90
30399;DHT22;17195;50.838;7.214;2022-12-16T18:17:28;-1.50;99.90
30399;DHT22;17195;50.838;7.214;2022-12-16T18:20:12;-1.40;99.90
30399;DHT22;17195;50.838;7.214;2022-12-16T18:22:56;-1.40;99.90
30399;DHT22;17195;50.838;7.214;2022-12-16T18:25:41;-1.30;99.90
30399;DHT22;17195;50.838;7.214;2022-12-16T18:28:25;-1.30;99.90
30399;DHT22;17195;50.838;7.214;2022-12-16T18:31:09;-1.30;99.90
30399;DHT22;17195;50.838;7.214;2022-12-16T18:33:53;-1.20;99.90
30399;DHT22;17195;50.838;7.214;2022-12-16T18:36:37;-1.10;99.90
30399;DHT22;17195;50.838;7.214;2022-12-16T18:39:22;-1.10;99.90
30399;DHT22;17195;50.838;7.214;2022-12-16T18:42:06;-1.00;99.90
30399;DHT22;17195;50.838;7.214;2022-12-16T18:44:51;-1.00;99.90
30399;DHT22;17195;50.838;7.214;2022-12-16T18:47:35;-1.00;99.90
30399;DHT22;17195;50.838;7.214;2022-12-16T18:50:19;-0.90;99.90
30399;DHT22;17195;50.838;7.214;2022-12-16T18:53:04;-0.90;99.90
30399;DHT22;17195;50.838;7.214;2022-12-16T18:56:00;-0.90;99.90